createdAt,value
2023-02-15T00:00:31.930Z,1.90
2023-02-15T00:03:00.086Z,1.60
2023-02-15T00:08:15.813Z,2.40
2023-02-15T00:10:43.903Z,1.90
2023-02-15T00:13:12.422Z,2.00
2023-02-15T00:15:41.726Z,1.70
2023-02-15T00:18:09.841Z,2.10
2023-02-15T00:20:37.971Z,1.70
2023-02-15T00:23:06.132Z,2.40
2023-02-15T00:25:34.563Z,1.70
2023-02-15T00:28:02.827Z,1.60
2023-02-15T00:30:31.089Z,1.80
2023-02-15T00:32:59.338Z,2.00
2023-02-15T00:35:28.443Z,2.10
2023-02-15T00:37:57.343Z,1.40
2023-02-15T00:40:26.065Z,1.60
2023-02-15T00:42:55.283Z,2.00
2023-02-15T00:45:23.501Z,1.80
2023-02-15T00:47:51.779Z,1.60
2023-02-15T00:50:21.199Z,3.00
2023-02-15T00:52:50.766Z,1.60
2023-02-15T00:55:18.974Z,1.70
2023-02-15T00:57:48.786Z,1.90
2023-02-15T01:00:19.106Z,1.60
2023-02-15T01:02:47.542Z,1.50
2023-02-15T01:05:16.345Z,1.60
2023-02-15T01:07:45.466Z,1.50
2023-02-15T01:10:13.604Z,2.50
2023-02-15T01:12:46.088Z,2.30
2023-02-15T01:15:14.241Z,1.60
2023-02-15T01:17:42.688Z,1.90
2023-02-15T01:20:11.279Z,1.70
2023-02-15T01:22:39.492Z,1.40
2023-02-15T01:25:07.982Z,1.80
2023-02-15T01:27:36.419Z,1.70
2023-02-15T01:30:10.006Z,1.50
2023-02-15T01:32:38.551Z,1.70
2023-02-15T01:35:11.365Z,1.70
2023-02-15T01:37:39.640Z,1.60
2023-02-15T01:40:10.023Z,1.60
2023-02-15T01:42:38.253Z,1.50
2023-02-15T01:45:23.420Z,1.60
2023-02-15T01:48:18.975Z,1.60
2023-02-15T01:50:57.085Z,1.30
2023-02-15T01:53:30.410Z,1.30
2023-02-15T01:56:02.717Z,1.70
2023-02-15T01:58:31.518Z,1.40
2023-02-15T02:01:01.363Z,1.90
2023-02-15T02:04:03.039Z,1.60
2023-02-15T02:06:32.961Z,1.40
2023-02-15T02:09:02.745Z,1.50
2023-02-15T02:11:31.765Z,1.50
2023-02-15T02:13:59.982Z,2.10
2023-02-15T02:16:28.037Z,1.50
2023-02-15T02:19:11.586Z,1.60
2023-02-15T02:21:50.953Z,1.30
2023-02-15T02:24:41.887Z,1.70
2023-02-15T02:27:27.579Z,1.50
2023-02-15T02:30:17.257Z,1.30
2023-02-15T02:32:52.751Z,1.40
2023-02-15T02:35:59.805Z,1.30
2023-02-15T02:38:43.715Z,1.50
2023-02-15T02:41:37.605Z,1.90
2023-02-15T02:44:24.334Z,1.40
2023-02-15T02:47:01.371Z,1.90
2023-02-15T02:49:37.591Z,1.60
2023-02-15T02:52:27.830Z,1.60
2023-02-15T02:54:58.504Z,1.40
2023-02-15T02:57:28.055Z,1.30
2023-02-15T03:00:00.542Z,1.30
2023-02-15T03:02:33.712Z,2.00
2023-02-15T03:05:08.044Z,1.70
2023-02-15T03:07:37.048Z,1.80
2023-02-15T03:10:06.602Z,1.70
2023-02-15T03:12:40.344Z,1.80
2023-02-15T03:15:17.737Z,1.80
2023-02-15T03:17:49.834Z,1.60
2023-02-15T03:20:30.779Z,1.70
2023-02-15T03:23:07.442Z,1.40
2023-02-15T03:25:38.211Z,1.50
2023-02-15T03:28:09.130Z,1.30
2023-02-15T03:30:37.879Z,1.60
2023-02-15T03:33:06.279Z,1.50
2023-02-15T03:35:41.952Z,1.60
2023-02-15T03:38:10.193Z,1.40
2023-02-15T03:40:57.518Z,1.70
2023-02-15T03:43:49.316Z,2.00
2023-02-15T03:46:41.151Z,1.60
2023-02-15T03:51:48.052Z,2.20
2023-02-15T03:54:40.232Z,1.80
2023-02-15T03:57:28.113Z,1.50
2023-02-15T04:00:14.804Z,1.80
2023-02-15T04:03:07.768Z,1.60
2023-02-15T04:05:36.456Z,1.80
2023-02-15T04:08:05.550Z,1.70
2023-02-15T04:10:52.594Z,1.90
2023-02-15T04:13:21.669Z,1.80
2023-02-15T04:16:06.002Z,1.60
2023-02-15T04:18:59.684Z,1.70
2023-02-15T04:21:47.572Z,1.60
2023-02-15T04:24:35.117Z,1.70
2023-02-15T04:27:04.260Z,1.40
2023-02-15T04:29:32.510Z,1.80
2023-02-15T04:32:01.690Z,2.10
2023-02-15T04:34:30.196Z,1.90
2023-02-15T04:36:58.818Z,1.70
2023-02-15T04:39:26.939Z,2.00
2023-02-15T04:41:55.322Z,1.80
2023-02-15T04:44:23.437Z,2.00
2023-02-15T04:46:51.663Z,2.00
2023-02-15T04:49:20.004Z,1.90
2023-02-15T04:51:48.236Z,1.70
2023-02-15T04:54:17.345Z,2.20
2023-02-15T04:56:45.475Z,2.20
2023-02-15T04:59:17.800Z,1.70
2023-02-15T05:01:46.259Z,1.90
2023-02-15T05:04:16.220Z,1.80
2023-02-15T05:06:44.442Z,1.90
2023-02-15T05:09:14.501Z,1.90
2023-02-15T05:11:43.125Z,2.60
2023-02-15T05:14:13.046Z,2.00
2023-02-15T05:16:42.816Z,2.00
2023-02-15T05:19:11.029Z,2.00
2023-02-15T05:21:41.202Z,2.10
2023-02-15T05:24:28.421Z,2.40
2023-02-15T05:27:19.482Z,2.10
2023-02-15T05:29:47.715Z,2.20
2023-02-15T05:32:19.417Z,2.30
2023-02-15T05:34:48.004Z,2.30
2023-02-15T05:37:16.135Z,2.40
2023-02-15T05:39:44.374Z,2.30
2023-02-15T05:42:12.599Z,2.10
2023-02-15T05:44:40.903Z,2.30
2023-02-15T05:47:08.934Z,2.50
2023-02-15T05:49:38.127Z,2.80
2023-02-15T05:52:06.406Z,2.40
2023-02-15T05:54:34.469Z,2.30
2023-02-15T05:57:02.761Z,2.50
2023-02-15T05:59:31.993Z,1.90
2023-02-15T06:02:00.174Z,2.80
2023-02-15T06:04:28.577Z,2.50
2023-02-15T06:06:56.789Z,2.60
2023-02-15T06:09:25.523Z,2.50
2023-02-15T06:11:53.723Z,2.10
2023-02-15T06:14:22.276Z,2.30
2023-02-15T06:16:50.685Z,2.00
2023-02-15T06:19:19.146Z,1.80
2023-02-15T06:21:47.343Z,2.60
2023-02-15T06:24:15.782Z,2.00
2023-02-15T06:26:45.376Z,2.10
2023-02-15T06:29:13.630Z,2.50
2023-02-15T06:31:42.009Z,2.20
2023-02-15T06:34:10.257Z,2.40
2023-02-15T06:36:38.663Z,2.20
2023-02-15T06:39:07.247Z,2.30
2023-02-15T06:41:35.464Z,2.00
2023-02-15T06:44:03.722Z,2.40
2023-02-15T06:46:32.436Z,2.60
2023-02-15T06:49:00.654Z,3.00
2023-02-15T06:51:29.201Z,2.10
2023-02-15T06:53:58.567Z,2.20
2023-02-15T06:56:27.003Z,2.90
2023-02-15T06:58:55.747Z,1.60
2023-02-15T07:01:24.250Z,2.50
2023-02-15T07:03:52.334Z,2.50
2023-02-15T07:06:20.926Z,2.60
2023-02-15T07:08:49.279Z,2.50
2023-02-15T07:11:36.489Z,2.20
2023-02-15T07:14:04.639Z,2.50
2023-02-15T07:16:34.794Z,2.10
2023-02-15T07:19:03.228Z,2.80
2023-02-15T07:21:35.823Z,2.30
2023-02-15T07:24:04.373Z,3.00
2023-02-15T07:26:33.291Z,2.40
2023-02-15T07:29:01.505Z,2.70
2023-02-15T07:31:29.792Z,2.50
2023-02-15T07:33:57.978Z,2.60
2023-02-15T07:36:26.107Z,2.90
2023-02-15T07:38:54.354Z,2.50
2023-02-15T07:41:22.984Z,2.80
2023-02-15T07:43:51.379Z,2.70
2023-02-15T07:46:20.737Z,2.60
2023-02-15T07:48:49.188Z,2.50
2023-02-15T07:51:17.574Z,2.40
2023-02-15T07:53:45.800Z,2.70
2023-02-15T07:56:14.614Z,2.00
2023-02-15T07:58:52.337Z,2.40
2023-02-15T08:01:40.884Z,2.40
2023-02-15T08:04:12.130Z,2.20
2023-02-15T08:06:40.358Z,3.00
2023-02-15T08:09:14.019Z,2.60
2023-02-15T08:11:42.632Z,2.80
2023-02-15T08:14:11.727Z,2.20
2023-02-15T08:16:42.341Z,2.50
2023-02-15T08:19:13.597Z,2.50
2023-02-15T08:21:44.213Z,2.90
2023-02-15T08:24:13.597Z,2.70
2023-02-15T08:26:42.552Z,2.80
2023-02-15T08:29:11.371Z,2.90
2023-02-15T08:31:42.040Z,2.30
2023-02-15T08:34:12.491Z,2.20
2023-02-15T08:36:40.877Z,2.60
2023-02-15T08:39:09.149Z,2.60
2023-02-15T08:41:38.451Z,2.60
2023-02-15T08:44:07.821Z,2.60
2023-02-15T08:46:37.810Z,1.90
2023-02-15T08:49:06.778Z,2.10
2023-02-15T08:51:36.393Z,2.30
2023-02-15T08:54:06.496Z,2.20
2023-02-15T08:56:36.392Z,2.20
2023-02-15T08:59:05.041Z,2.20
2023-02-15T09:01:34.375Z,2.10
2023-02-15T09:04:06.454Z,2.30
2023-02-15T09:06:34.681Z,2.00
2023-02-15T09:09:04.808Z,2.10
2023-02-15T09:11:36.247Z,2.20
2023-02-15T09:14:09.267Z,2.20
2023-02-15T09:16:38.646Z,2.20
2023-02-15T09:19:07.066Z,2.40
2023-02-15T09:21:37.637Z,2.90
2023-02-15T09:24:07.919Z,2.80
2023-02-15T09:26:38.462Z,2.40
2023-02-15T09:29:06.523Z,2.10
2023-02-15T09:31:38.449Z,1.90
2023-02-15T09:34:06.878Z,2.40
2023-02-15T09:36:36.756Z,2.20
2023-02-15T09:39:15.759Z,2.20
2023-02-15T09:42:20.841Z,2.90
2023-02-15T09:44:52.046Z,2.10
2023-02-15T09:47:55.518Z,2.40
2023-02-15T09:50:29.440Z,2.20
2023-02-15T09:53:19.204Z,2.20
2023-02-15T09:56:02.977Z,2.60
2023-02-15T09:58:52.812Z,2.70
2023-02-15T10:01:24.704Z,2.60
2023-02-15T10:04:11.196Z,1.90
2023-02-15T10:07:17.090Z,2.30
2023-02-15T10:09:57.607Z,1.90
2023-02-15T10:12:32.016Z,2.10
2023-02-15T10:15:29.419Z,1.90
2023-02-15T10:18:24.400Z,2.00
2023-02-15T10:21:03.867Z,1.60
2023-02-15T10:23:32.215Z,2.80
2023-02-15T10:26:12.641Z,2.30
2023-02-15T10:28:43.801Z,2.00
2023-02-15T10:31:24.178Z,2.50
2023-02-15T10:34:10.928Z,1.70
2023-02-15T10:36:54.888Z,2.00
2023-02-15T10:39:29.369Z,1.70
2023-02-15T10:42:07.729Z,2.00
2023-02-15T10:45:09.010Z,2.20
2023-02-15T10:47:44.597Z,2.00
2023-02-15T10:50:54.354Z,1.80
2023-02-15T10:53:52.109Z,1.80
2023-02-15T10:56:28.085Z,2.10
2023-02-15T10:59:10.069Z,2.20
2023-02-15T11:04:31.960Z,2.20
2023-02-15T11:07:56.046Z,1.70
2023-02-15T11:10:45.889Z,1.80
2023-02-15T11:13:18.997Z,1.80
2023-02-15T11:15:57.050Z,1.80
2023-02-15T11:18:40.120Z,2.20
2023-02-15T11:21:15.728Z,2.10
2023-02-15T11:23:48.566Z,2.30
2023-02-15T11:26:26.016Z,1.70
2023-02-15T11:29:00.511Z,2.10
2023-02-15T11:31:33.874Z,2.20
2023-02-15T11:34:04.695Z,1.60
2023-02-15T11:36:38.678Z,1.70
2023-02-15T11:39:11.327Z,1.60
2023-02-15T11:41:41.428Z,2.10
2023-02-15T11:44:16.979Z,2.00
2023-02-15T11:46:45.106Z,1.90
2023-02-15T11:49:23.929Z,1.90
2023-02-15T11:51:52.085Z,1.70
2023-02-15T11:54:21.842Z,2.00
2023-02-15T11:56:50.424Z,1.50
2023-02-15T11:59:28.881Z,1.70
2023-02-15T12:01:57.704Z,2.40
2023-02-15T12:04:36.189Z,1.70
2023-02-15T12:07:23.784Z,1.70
2023-02-15T12:10:05.429Z,1.60
2023-02-15T12:12:35.841Z,1.70
2023-02-15T12:15:06.330Z,1.60
2023-02-15T12:17:37.654Z,1.70
2023-02-15T12:20:15.012Z,1.90
2023-02-15T12:23:05.852Z,2.00
2023-02-15T12:25:36.704Z,2.10
2023-02-15T12:28:36.909Z,1.40
2023-02-15T12:31:28.183Z,1.30
2023-02-15T12:33:59.189Z,1.60
2023-02-15T12:36:31.041Z,1.80
2023-02-15T12:39:06.677Z,1.80
2023-02-15T12:41:35.449Z,2.30
2023-02-15T12:44:04.885Z,2.00
2023-02-15T12:46:38.216Z,1.60
2023-02-15T12:49:09.320Z,1.80
2023-02-15T12:51:45.868Z,1.40
2023-02-15T12:54:23.884Z,1.40
2023-02-15T12:56:52.886Z,2.30
2023-02-15T12:59:23.685Z,1.60
2023-02-15T13:01:55.292Z,1.80
2023-02-15T13:04:28.640Z,1.50
2023-02-15T13:06:59.715Z,1.70
2023-02-15T13:09:32.157Z,1.70
2023-02-15T13:12:17.586Z,1.70
2023-02-15T13:14:46.918Z,1.50
2023-02-15T13:17:15.480Z,1.60
2023-02-15T13:22:25.248Z,1.50
2023-02-15T13:24:56.067Z,1.50
2023-02-15T13:27:28.364Z,1.30
2023-02-15T13:29:59.596Z,1.20
2023-02-15T13:32:31.518Z,2.00
2023-02-15T13:35:00.804Z,1.80
2023-02-15T13:37:58.607Z,1.50
2023-02-15T13:40:40.600Z,1.60
2023-02-15T13:43:32.036Z,1.20
2023-02-15T13:46:03.735Z,1.40
2023-02-15T13:48:54.198Z,1.40
2023-02-15T13:51:28.070Z,2.00
2023-02-15T13:54:00.121Z,1.50
2023-02-15T13:56:41.672Z,1.60
2023-02-15T13:59:22.425Z,1.70
2023-02-15T14:02:10.218Z,1.70
2023-02-15T14:05:12.907Z,1.80
2023-02-15T14:07:55.099Z,1.50
2023-02-15T14:10:34.802Z,1.60
2023-02-15T14:13:14.921Z,1.00
2023-02-15T14:15:49.221Z,1.50
2023-02-15T14:18:27.342Z,1.80
2023-02-15T14:21:10.736Z,1.40
2023-02-15T14:23:58.796Z,2.20
2023-02-15T14:26:39.250Z,1.70
2023-02-15T14:29:33.653Z,1.50
2023-02-15T14:32:05.728Z,1.70
2023-02-15T14:34:58.942Z,1.80
2023-02-15T14:37:43.175Z,1.80
2023-02-15T14:41:03.476Z,1.60
2023-02-15T14:43:53.810Z,1.60
2023-02-15T14:46:40.475Z,1.60
2023-02-15T14:49:18.557Z,1.50
2023-02-15T14:51:47.025Z,1.20
2023-02-15T14:54:19.011Z,2.00
2023-02-15T14:57:02.555Z,1.40
2023-02-15T14:59:36.773Z,1.60
2023-02-15T15:02:10.994Z,1.70
2023-02-15T15:04:39.896Z,1.40
2023-02-15T15:07:24.331Z,1.60
2023-02-15T15:10:03.330Z,1.70
2023-02-15T15:12:34.635Z,1.80
2023-02-15T15:15:02.911Z,1.80
2023-02-15T15:17:34.603Z,1.60
2023-02-15T15:20:14.731Z,2.00
2023-02-15T15:22:43.478Z,1.90
2023-02-15T15:25:53.720Z,2.10
2023-02-15T15:28:33.896Z,2.20
2023-02-15T15:31:15.435Z,1.90
2023-02-15T15:34:08.564Z,2.00
2023-02-15T15:36:49.311Z,2.10
2023-02-15T15:39:36.193Z,2.60
2023-02-15T15:42:33.026Z,2.00
2023-02-15T15:45:16.106Z,1.90
2023-02-15T15:48:13.722Z,2.00
2023-02-15T15:50:42.713Z,2.40
2023-02-15T15:53:21.398Z,2.20
2023-02-15T15:55:50.639Z,2.20
2023-02-15T15:58:19.341Z,2.20
2023-02-15T16:01:08.863Z,2.30
2023-02-15T16:03:38.247Z,1.70
2023-02-15T16:06:06.622Z,2.10
2023-02-15T16:08:37.419Z,2.30
2023-02-15T16:11:23.696Z,2.60
2023-02-15T16:13:51.936Z,2.30
2023-02-15T16:16:29.288Z,2.70
2023-02-15T16:19:00.658Z,1.90
2023-02-15T16:21:35.868Z,2.10
2023-02-15T16:24:20.973Z,2.20
2023-02-15T16:27:11.904Z,2.50
2023-02-15T16:29:40.673Z,2.10
2023-02-15T16:32:24.380Z,2.80
2023-02-15T16:34:57.207Z,2.40
2023-02-15T16:37:32.907Z,2.60
2023-02-15T16:40:01.122Z,1.70
2023-02-15T16:42:29.501Z,2.20
2023-02-15T16:45:24.739Z,2.30
2023-02-15T16:47:56.520Z,2.10
2023-02-15T16:50:35.782Z,2.40
2023-02-15T16:53:05.293Z,2.20
2023-02-15T16:55:39.644Z,2.10
2023-02-15T16:58:12.812Z,2.80
2023-02-15T17:03:15.475Z,2.70
2023-02-15T17:05:47.071Z,2.10
2023-02-15T17:08:34.585Z,2.00
2023-02-15T17:11:15.853Z,3.40
2023-02-15T17:14:06.639Z,2.40
2023-02-15T17:16:42.030Z,2.20
2023-02-15T17:19:20.691Z,2.40
2023-02-15T17:22:22.064Z,2.30
2023-02-15T17:24:50.985Z,2.10
2023-02-15T17:27:23.452Z,2.70
2023-02-15T17:29:53.430Z,2.30
2023-02-15T17:32:24.160Z,2.30
2023-02-15T17:35:01.391Z,2.60
2023-02-15T17:37:42.642Z,2.70
2023-02-15T17:40:26.727Z,2.70
2023-02-15T17:42:54.915Z,2.40
2023-02-15T17:45:23.525Z,2.90
2023-02-15T17:47:52.454Z,2.70
2023-02-15T17:50:24.966Z,2.60
2023-02-15T17:52:58.279Z,2.80
2023-02-15T17:55:36.296Z,2.60
2023-02-15T17:58:15.078Z,3.10
2023-02-15T18:01:05.172Z,2.60
2023-02-15T18:04:08.981Z,2.90
2023-02-15T18:06:57.562Z,3.00
2023-02-15T18:09:44.680Z,3.00
2023-02-15T18:12:31.133Z,2.90
2023-02-15T18:15:00.760Z,3.00
2023-02-15T18:17:45.391Z,3.00
2023-02-15T18:20:24.972Z,2.80
2023-02-15T18:22:53.783Z,2.60
2023-02-15T18:25:23.827Z,2.70
2023-02-15T18:27:54.878Z,3.00
2023-02-15T18:30:25.671Z,3.30
2023-02-15T18:32:56.862Z,3.10
2023-02-15T18:35:27.005Z,2.90
2023-02-15T18:37:57.294Z,2.80
2023-02-15T18:40:26.660Z,2.80
2023-02-15T18:42:57.104Z,2.60
2023-02-15T18:45:28.810Z,2.90
2023-02-15T18:47:57.842Z,2.80
2023-02-15T18:50:28.091Z,3.20
2023-02-15T18:52:56.669Z,3.10
2023-02-15T18:55:26.302Z,3.20
2023-02-15T18:57:56.101Z,3.50
2023-02-15T19:00:34.891Z,3.20
2023-02-15T19:03:06.740Z,2.90
2023-02-15T19:05:35.614Z,3.10
2023-02-15T19:08:03.942Z,2.90
2023-02-15T19:10:33.297Z,3.20
2023-02-15T19:13:01.557Z,3.40
2023-02-15T19:15:30.782Z,3.60
2023-02-15T19:17:59.571Z,3.20
2023-02-15T19:20:44.288Z,2.30
2023-02-15T19:23:19.521Z,2.90
2023-02-15T19:25:49.632Z,2.70
2023-02-15T19:28:25.427Z,3.00
2023-02-15T19:30:54.120Z,3.20
2023-02-15T19:33:23.864Z,2.50
2023-02-15T19:35:56.189Z,3.10
2023-02-15T19:38:27.333Z,3.00
2023-02-15T19:40:57.374Z,3.00
2023-02-15T19:43:27.847Z,2.70
2023-02-15T19:45:56.301Z,3.40
2023-02-15T19:48:26.558Z,2.70
2023-02-15T19:50:57.478Z,2.50
2023-02-15T19:53:28.034Z,2.90
2023-02-15T19:55:57.886Z,2.90
2023-02-15T19:58:26.955Z,3.10
2023-02-15T20:00:55.968Z,2.30
2023-02-15T20:03:25.990Z,2.90
2023-02-15T20:05:55.055Z,3.10
2023-02-15T20:08:23.724Z,2.10
2023-02-15T20:10:53.753Z,2.60
2023-02-15T20:13:23.750Z,2.30
2023-02-15T20:15:52.271Z,2.10
2023-02-15T20:18:22.559Z,2.50
2023-02-15T20:20:52.302Z,2.20
2023-02-15T20:23:39.384Z,2.20
2023-02-15T20:26:15.112Z,2.40
2023-02-15T20:28:43.257Z,2.20
2023-02-15T20:31:18.817Z,2.40
2023-02-15T20:33:47.273Z,2.70
2023-02-15T20:36:22.656Z,2.90
2023-02-15T20:38:51.123Z,2.20
2023-02-15T20:41:36.283Z,2.80
2023-02-15T20:44:18.962Z,2.40
2023-02-15T20:46:48.642Z,2.50
2023-02-15T20:49:17.497Z,2.50
2023-02-15T20:51:47.539Z,2.60
2023-02-15T20:54:21.291Z,2.70
2023-02-15T20:56:50.152Z,2.80
2023-02-15T20:59:21.613Z,2.90
2023-02-15T21:01:50.595Z,3.00
2023-02-15T21:04:22.136Z,3.00
2023-02-15T21:06:50.351Z,2.20
2023-02-15T21:09:20.220Z,3.10
2023-02-15T21:11:49.183Z,2.40
2023-02-15T21:14:18.642Z,2.60
2023-02-15T21:16:47.832Z,2.90
2023-02-15T21:19:21.374Z,3.70
2023-02-15T21:21:51.246Z,3.70
2023-02-15T21:24:22.216Z,3.50
2023-02-15T21:26:51.512Z,2.90
2023-02-15T21:29:21.014Z,2.50
2023-02-15T21:31:49.406Z,3.20
2023-02-15T21:34:20.765Z,2.80
2023-02-15T21:36:51.048Z,3.70
2023-02-15T21:39:24.330Z,3.40
2023-02-15T21:42:11.680Z,2.90
2023-02-15T21:44:58.799Z,3.80
2023-02-15T21:47:47.995Z,3.00
2023-02-15T21:50:40.534Z,3.40
2023-02-15T21:53:14.000Z,3.60
2023-02-15T21:55:43.509Z,3.30
2023-02-15T21:58:19.190Z,2.80
2023-02-15T22:00:47.857Z,3.00
2023-02-15T22:03:16.232Z,2.90
2023-02-15T22:05:44.422Z,2.70
2023-02-15T22:08:15.992Z,3.00
2023-02-15T22:10:44.603Z,3.20
2023-02-15T22:13:17.672Z,3.20
2023-02-15T22:15:47.353Z,3.30
2023-02-15T22:18:40.429Z,3.50
2023-02-15T22:21:09.930Z,3.50
2023-02-15T22:23:39.527Z,2.90
2023-02-15T22:26:09.431Z,3.30
2023-02-15T22:28:40.396Z,3.30
2023-02-15T22:31:15.713Z,3.70
2023-02-15T22:33:44.970Z,3.10
2023-02-15T22:36:23.215Z,4.00
2023-02-15T22:38:51.908Z,2.90
2023-02-15T22:41:20.416Z,3.80
2023-02-15T22:43:48.655Z,3.40
2023-02-15T22:46:19.268Z,3.70
2023-02-15T22:48:48.422Z,2.90
2023-02-15T22:51:18.703Z,2.80
2023-02-15T22:53:49.778Z,3.60
2023-02-15T22:56:38.193Z,3.20
2023-02-15T22:59:08.661Z,3.40
2023-02-15T23:01:37.018Z,2.80
2023-02-15T23:04:05.623Z,2.80
2023-02-15T23:06:34.502Z,3.20
2023-02-15T23:09:02.678Z,2.90
2023-02-15T23:11:31.075Z,2.20
2023-02-15T23:13:59.236Z,2.60
2023-02-15T23:16:27.622Z,2.80
2023-02-15T23:18:55.856Z,2.40
2023-02-15T23:21:24.238Z,2.10
2023-02-15T23:23:55.699Z,2.50
2023-02-15T23:26:27.693Z,2.10
2023-02-15T23:28:57.206Z,2.30
2023-02-15T23:31:30.803Z,2.20
2023-02-15T23:34:17.444Z,2.40
2023-02-15T23:36:46.216Z,2.30
2023-02-15T23:39:34.569Z,2.30
2023-02-15T23:42:07.726Z,2.40
2023-02-15T23:44:35.951Z,2.30
2023-02-15T23:47:04.631Z,2.20
2023-02-15T23:49:33.415Z,2.40
2023-02-15T23:52:01.591Z,3.30
2023-02-15T23:54:30.296Z,2.90
2023-02-15T23:57:00.326Z,2.80
2023-02-15T23:59:30.407Z,2.80
